sensor_id;sensor_type;location;lat;lon;timestamp;temperature;humidity
14053;DHT22;7101;51.600;7.310;2023-04-03T00:00:51;1.60;99.90
14053;DHT22;7101;51.600;7.310;2023-04-03T00:03:18;1.70;99.90
14053;DHT22;7101;51.600;7.310;2023-04-03T00:05:47;1.90;99.90
14053;DHT22;7101;51.600;7.310;2023-04-03T00:08:15;2.00;99.90
14053;DHT22;7101;51.600;7.310;2023-04-03T00:10:41;2.10;99.90
14053;DHT22;7101;51.600;7.310;2023-04-03T00:13:09;2.10;99.90
14053;DHT22;7101;51.600;7.310;2023-04-03T00:15:37;2.30;99.90
14053;DHT22;7101;51.600;7.310;2023-04-03T00:18:05;2.30;99.90
14053;DHT22;7101;51.600;7.310;2023-04-03T00:20:32;2.40;99.90
14053;DHT22;7101;51.600;7.310;2023-04-03T00:23:01;2.40;99.90
14053;DHT22;7101;51.600;7.310;2023-04-03T00:25:28;2.50;99.90
14053;DHT22;7101;51.600;7.310;2023-04-03T00:27:56;2.50;99.90
14053;DHT22;7101;51.600;7.310;2023-04-03T00:30:23;2.60;99.90
14053;DHT22;7101;51.600;7.310;2023-04-03T00:32:52;2.60;99.90
14053;DHT22;7101;51.600;7.310;2023-04-03T00:35:20;2.60;99.90
14053;DHT22;7101;51.600;7.310;2023-04-03T00:37:50;2.70;99.90
14053;DHT22;7101;51.600;7.310;2023-04-03T00:40:18;2.60;99.90
14053;DHT22;7101;51.600;7.310;2023-04-03T00:42:47;2.70;99.90
14053;DHT22;7101;51.600;7.310;2023-04-03T00:45:33;2.70;99.90
14053;DHT22;7101;51.600;7.310;2023-04-03T00:48:01;2.70;99.90
14053;DHT22;7101;51.600;7.310;2023-04-03T00:50:32;2.70;99.90
14053;DHT22;7101;51.600;7.310;2023-04-03T00:53:02;2.70;99.90
14053;DHT22;7101;51.600;7.310;2023-04-03T00:55:32;2.60;99.90
14053;DHT22;7101;51.600;7.310;2023-04-03T00:58:00;2.70;99.90
14053;DHT22;7101;51.600;7.310;2023-04-03T01:00:27;2.60;99.90
14053;DHT22;7101;51.600;7.310;2023-04-03T01:02:54;2.70;99.90
14053;DHT22;7101;51.600;7.310;2023-04-03T01:05:23;2.70;99.90
14053;DHT22;7101;51.600;7.310;2023-04-03T01:07:51;2.60;99.90
14053;DHT22;7101;51.600;7.310;2023-04-03T01:10:22;2.50;99.90
14053;DHT22;7101;51.600;7.310;2023-04-03T01:12:52;2.50;99.90
14053;DHT22;7101;51.600;7.310;2023-04-03T01:15:20;2.40;99.90
14053;DHT22;7101;51.600;7.310;2023-04-03T01:17:50;2.40;99.90
14053;DHT22;7101;51.600;7.310;2023-04-03T01:23:30;2.40;99.90
14053;DHT22;7101;51.600;7.310;2023-04-03T01:25:58;2.40;99.90
14053;DHT22;7101;51.600;7.310;2023-04-03T01:28:28;2.40;99.90
14053;DHT22;7101;51.600;7.310;2023-04-03T01:31:00;2.30;99.90
14053;DHT22;7101;51.600;7.310;2023-04-03T01:33:31;2.30;99.90
14053;DHT22;7101;51.600;7.310;2023-04-03T01:35:59;2.30;99.90
14053;DHT22;7101;51.600;7.310;2023-04-03T01:38:27;2.20;99.90
14053;DHT22;7101;51.600;7.310;2023-04-03T01:40:54;2.20;99.90
14053;DHT22;7101;51.600;7.310;2023-04-03T01:43:22;2.20;99.90
14053;DHT22;7101;51.600;7.310;2023-04-03T01:45:49;2.10;99.90
14053;DHT22;7101;51.600;7.310;2023-04-03T01:48:18;2.10;99.90
14053;DHT22;7101;51.600;7.310;2023-04-03T01:50:46;2.10;99.90
14053;DHT22;7101;51.600;7.310;2023-04-03T01:53:13;2.10;99.90
14053;DHT22;7101;51.600;7.310;2023-04-03T01:55:41;2.10;99.90
14053;DHT22;7101;51.600;7.310;2023-04-03T01:58:08;2.10;99.90
14053;DHT22;7101;51.600;7.310;2023-04-03T02:00:35;2.00;99.90
14053;DHT22;7101;51.600;7.310;2023-04-03T02:03:02;2.00;99.90
14053;DHT22;7101;51.600;7.310;2023-04-03T02:05:30;2.00;99.90
14053;DHT22;7101;51.600;7.310;2023-04-03T02:07:58;1.90;99.90
14053;DHT22;7101;51.600;7.310;2023-04-03T02:10:25;1.90;99.90
14053;DHT22;7101;51.600;7.310;2023-04-03T02:12:53;1.90;99.90
14053;DHT22;7101;51.600;7.310;2023-04-03T02:15:21;1.80;99.90
14053;DHT22;7101;51.600;7.310;2023-04-03T02:17:48;1.80;99.90
14053;DHT22;7101;51.600;7.310;2023-04-03T02:20:15;1.80;99.90
14053;DHT22;7101;51.600;7.310;2023-04-03T02:22:42;1.80;99.90
14053;DHT22;7101;51.600;7.310;2023-04-03T02:25:10;1.80;99.90
14053;DHT22;7101;51.600;7.310;2023-04-03T02:27:39;1.80;99.90
14053;DHT22;7101;51.600;7.310;2023-04-03T02:30:06;1.90;99.90
14053;DHT22;7101;51.600;7.310;2023-04-03T02:32:37;1.80;99.90
14053;DHT22;7101;51.600;7.310;2023-04-03T02:35:04;1.70;99.90
14053;DHT22;7101;51.600;7.310;2023-04-03T02:37:31;1.80;99.90
14053;DHT22;7101;51.600;7.310;2023-04-03T02:39:58;1.80;99.90
14053;DHT22;7101;51.600;7.310;2023-04-03T02:42:26;1.70;99.90
14053;DHT22;7101;51.600;7.310;2023-04-03T02:44:53;1.60;99.90
14053;DHT22;7101;51.600;7.310;2023-04-03T02:47:21;1.60;99.90
14053;DHT22;7101;51.600;7.310;2023-04-03T02:49:48;1.60;99.90
14053;DHT22;7101;51.600;7.310;2023-04-03T02:52:15;1.60;99.90
14053;DHT22;7101;51.600;7.310;2023-04-03T02:54:42;1.60;99.90
14053;DHT22;7101;51.600;7.310;2023-04-03T02:57:09;1.60;99.90
14053;DHT22;7101;51.600;7.310;2023-04-03T02:59:38;1.60;99.90
14053;DHT22;7101;51.600;7.310;2023-04-03T03:02:07;1.50;99.90
14053;DHT22;7101;51.600;7.310;2023-04-03T03:04:36;1.50;99.90
14053;DHT22;7101;51.600;7.310;2023-04-03T03:07:04;1.50;99.90
14053;DHT22;7101;51.600;7.310;2023-04-03T03:09:30;1.40;99.90
14053;DHT22;7101;51.600;7.310;2023-04-03T03:11:58;1.40;99.90
14053;DHT22;7101;51.600;7.310;2023-04-03T03:14:24;1.40;99.90
14053;DHT22;7101;51.600;7.310;2023-04-03T03:16:53;1.30;99.90
14053;DHT22;7101;51.600;7.310;2023-04-03T03:19:19;1.20;99.90
14053;DHT22;7101;51.600;7.310;2023-04-03T03:21:46;1.20;99.90
14053;DHT22;7101;51.600;7.310;2023-04-03T03:24:13;1.20;99.90
14053;DHT22;7101;51.600;7.310;2023-04-03T03:26:41;1.20;99.90
14053;DHT22;7101;51.600;7.310;2023-04-03T03:29:08;1.20;99.90
14053;DHT22;7101;51.600;7.310;2023-04-03T03:31:36;1.20;99.90
14053;DHT22;7101;51.600;7.310;2023-04-03T03:34:04;1.10;99.90
14053;DHT22;7101;51.600;7.310;2023-04-03T03:36:31;1.10;99.90
14053;DHT22;7101;51.600;7.310;2023-04-03T03:38:59;1.10;99.90
14053;DHT22;7101;51.600;7.310;2023-04-03T03:41:27;1.00;99.90
14053;DHT22;7101;51.600;7.310;2023-04-03T03:44:00;1.00;99.90
14053;DHT22;7101;51.600;7.310;2023-04-03T03:46:27;1.00;99.90
14053;DHT22;7101;51.600;7.310;2023-04-03T03:48:54;1.00;99.90
14053;DHT22;7101;51.600;7.310;2023-04-03T03:51:22;0.90;99.90
14053;DHT22;7101;51.600;7.310;2023-04-03T03:53:50;0.90;99.90
14053;DHT22;7101;51.600;7.310;2023-04-03T03:56:17;0.90;99.90
14053;DHT22;7101;51.600;7.310;2023-04-03T03:58:44;0.90;99.90
14053;DHT22;7101;51.600;7.310;2023-04-03T04:01:11;0.80;99.90
14053;DHT22;7101;51.600;7.310;2023-04-03T04:03:38;0.80;99.90
14053;DHT22;7101;51.600;7.310;2023-04-03T04:06:05;0.80;99.90
14053;DHT22;7101;51.600;7.310;2023-04-03T04:08:33;0.80;99.90
14053;DHT22;7101;51.600;7.310;2023-04-03T04:11:00;0.70;99.90
14053;DHT22;7101;51.600;7.310;2023-04-03T04:13:27;0.70;99.90
14053;DHT22;7101;51.600;7.310;2023-04-03T04:15:54;0.70;99.90
14053;DHT22;7101;51.600;7.310;2023-04-03T04:18:21;0.70;99.90
14053;DHT22;7101;51.600;7.310;2023-04-03T04:20:49;0.70;99.90
14053;DHT22;7101;51.600;7.310;2023-04-03T04:23:16;0.70;99.90
14053;DHT22;7101;51.600;7.310;2023-04-03T04:25:46;0.70;99.90
14053;DHT22;7101;51.600;7.310;2023-04-03T04:28:14;0.60;99.90
14053;DHT22;7101;51.600;7.310;2023-04-03T04:30:43;0.70;99.90
14053;DHT22;7101;51.600;7.310;2023-04-03T04:33:11;0.60;99.90
14053;DHT22;7101;51.600;7.310;2023-04-03T04:35:42;0.60;99.90
14053;DHT22;7101;51.600;7.310;2023-04-03T04:38:09;0.60;99.90
14053;DHT22;7101;51.600;7.310;2023-04-03T04:40:37;0.60;99.90
14053;DHT22;7101;51.600;7.310;2023-04-03T04:43:05;0.50;99.90
14053;DHT22;7101;51.600;7.310;2023-04-03T04:45:33;0.50;99.90
14053;DHT22;7101;51.600;7.310;2023-04-03T04:48:00;0.50;99.90
14053;DHT22;7101;51.600;7.310;2023-04-03T04:50:26;0.40;99.90
14053;DHT22;7101;51.600;7.310;2023-04-03T04:52:54;0.40;99.90
14053;DHT22;7101;51.600;7.310;2023-04-03T04:55:21;0.30;99.90
14053;DHT22;7101;51.600;7.310;2023-04-03T04:57:48;0.40;99.90
14053;DHT22;7101;51.600;7.310;2023-04-03T05:00:17;0.30;99.90
14053;DHT22;7101;51.600;7.310;2023-04-03T05:02:47;0.40;99.90
14053;DHT22;7101;51.600;7.310;2023-04-03T05:05:15;0.40;99.90
14053;DHT22;7101;51.600;7.310;2023-04-03T05:07:43;0.30;99.90
14053;DHT22;7101;51.600;7.310;2023-04-03T05:10:10;0.30;99.90
14053;DHT22;7101;51.600;7.310;2023-04-03T05:12:37;0.30;99.90
14053;DHT22;7101;51.600;7.310;2023-04-03T05:15:05;0.30;99.90
14053;DHT22;7101;51.600;7.310;2023-04-03T05:17:33;0.30;99.90
14053;DHT22;7101;51.600;7.310;2023-04-03T05:20:01;0.30;99.90
14053;DHT22;7101;51.600;7.310;2023-04-03T05:22:29;0.30;99.90
14053;DHT22;7101;51.600;7.310;2023-04-03T05:24:56;0.40;99.90
14053;DHT22;7101;51.600;7.310;2023-04-03T05:27:23;0.40;99.90
14053;DHT22;7101;51.600;7.310;2023-04-03T05:29:53;0.40;99.90
14053;DHT22;7101;51.600;7.310;2023-04-03T05:32:21;0.40;99.90
14053;DHT22;7101;51.600;7.310;2023-04-03T05:34:51;0.40;99.90
14053;DHT22;7101;51.600;7.310;2023-04-03T05:37:18;0.40;99.90
14053;DHT22;7101;51.600;7.310;2023-04-03T05:39:46;0.40;99.90
14053;DHT22;7101;51.600;7.310;2023-04-03T05:42:13;0.50;99.90
14053;DHT22;7101;51.600;7.310;2023-04-03T05:44:40;0.50;99.90
14053;DHT22;7101;51.600;7.310;2023-04-03T05:47:07;0.60;99.90
14053;DHT22;7101;51.600;7.310;2023-04-03T05:49:34;0.80;99.90
14053;DHT22;7101;51.600;7.310;2023-04-03T05:52:04;1.20;99.90
14053;DHT22;7101;51.600;7.310;2023-04-03T05:54:31;1.50;99.90
14053;DHT22;7101;51.600;7.310;2023-04-03T05:57:01;2.20;99.90
14053;DHT22;7101;51.600;7.310;2023-04-03T05:59:28;3.10;99.90
14053;DHT22;7101;51.600;7.310;2023-04-03T06:01:57;3.90;99.90
14053;DHT22;7101;51.600;7.310;2023-04-03T06:04:24;4.30;99.90
14053;DHT22;7101;51.600;7.310;2023-04-03T06:06:54;4.90;99.90
14053;DHT22;7101;51.600;7.310;2023-04-03T06:09:25;5.10;99.90
14053;DHT22;7101;51.600;7.310;2023-04-03T06:11:54;5.90;99.90
14053;DHT22;7101;51.600;7.310;2023-04-03T06:14:26;5.70;99.90
14053;DHT22;7101;51.600;7.310;2023-04-03T06:16:55;5.90;99.90
14053;DHT22;7101;51.600;7.310;2023-04-03T06:19:32;6.70;99.90
14053;DHT22;7101;51.600;7.310;2023-04-03T06:21:59;6.80;99.90
14053;DHT22;7101;51.600;7.310;2023-04-03T06:24:31;6.70;99.90
14053;DHT22;7101;51.600;7.310;2023-04-03T06:27:11;6.40;99.90
14053;DHT22;7101;51.600;7.310;2023-04-03T06:29:38;6.30;99.90
14053;DHT22;7101;51.600;7.310;2023-04-03T06:32:05;6.10;99.90
14053;DHT22;7101;51.600;7.310;2023-04-03T06:34:34;6.10;99.90
14053;DHT22;7101;51.600;7.310;2023-04-03T06:37:01;5.90;99.90
14053;DHT22;7101;51.600;7.310;2023-04-03T06:39:32;5.90;99.90
14053;DHT22;7101;51.600;7.310;2023-04-03T06:42:09;6.20;99.90
14053;DHT22;7101;51.600;7.310;2023-04-03T06:44:43;6.70;99.90
14053;DHT22;7101;51.600;7.310;2023-04-03T06:47:19;6.50;99.90
14053;DHT22;7101;51.600;7.310;2023-04-03T06:49:46;6.60;99.90
14053;DHT22;7101;51.600;7.310;2023-04-03T06:52:13;6.70;99.90
14053;DHT22;7101;51.600;7.310;2023-04-03T06:54:41;6.90;99.90
14053;DHT22;7101;51.600;7.310;2023-04-03T06:57:14;6.70;99.90
14053;DHT22;7101;51.600;7.310;2023-04-03T06:59:53;6.90;99.90
14053;DHT22;7101;51.600;7.310;2023-04-03T07:02:22;6.80;99.90
14053;DHT22;7101;51.600;7.310;2023-04-03T07:04:54;6.80;99.90
14053;DHT22;7101;51.600;7.310;2023-04-03T07:07:21;7.00;99.90
14053;DHT22;7101;51.600;7.310;2023-04-03T07:09:50;6.70;99.90
14053;DHT22;7101;51.600;7.310;2023-04-03T07:12:18;6.40;99.90
14053;DHT22;7101;51.600;7.310;2023-04-03T07:14:51;6.10;99.90
14053;DHT22;7101;51.600;7.310;2023-04-03T07:17:19;6.30;99.90
14053;DHT22;7101;51.600;7.310;2023-04-03T07:19:45;6.10;99.90
14053;DHT22;7101;51.600;7.310;2023-04-03T07:22:13;6.50;99.90
14053;DHT22;7101;51.600;7.310;2023-04-03T07:24:41;6.40;99.90
14053;DHT22;7101;51.600;7.310;2023-04-03T07:27:15;6.50;99.90
14053;DHT22;7101;51.600;7.310;2023-04-03T07:29:43;7.00;99.90
14053;DHT22;7101;51.600;7.310;2023-04-03T07:32:18;7.00;99.90
14053;DHT22;7101;51.600;7.310;2023-04-03T07:34:45;6.80;99.90
14053;DHT22;7101;51.600;7.310;2023-04-03T07:37:20;6.80;99.90
14053;DHT22;7101;51.600;7.310;2023-04-03T07:39:47;6.90;99.90
14053;DHT22;7101;51.600;7.310;2023-04-03T07:42:31;6.70;99.90
14053;DHT22;7101;51.600;7.310;2023-04-03T07:44:59;7.10;99.90
14053;DHT22;7101;51.600;7.310;2023-04-03T07:47:32;7.00;99.90
14053;DHT22;7101;51.600;7.310;2023-04-03T07:50:03;7.20;99.90
14053;DHT22;7101;51.600;7.310;2023-04-03T07:52:29;7.30;99.90
14053;DHT22;7101;51.600;7.310;2023-04-03T07:54:57;7.80;99.90
14053;DHT22;7101;51.600;7.310;2023-04-03T07:57:32;7.30;99.90
14053;DHT22;7101;51.600;7.310;2023-04-03T08:00:00;7.70;99.90
14053;DHT22;7101;51.600;7.310;2023-04-03T08:02:33;7.40;99.90
14053;DHT22;7101;51.600;7.310;2023-04-03T08:05:07;7.10;99.90
14053;DHT22;7101;51.600;7.310;2023-04-03T08:07:52;6.90;99.90
14053;DHT22;7101;51.600;7.310;2023-04-03T08:10:26;7.20;99.90
14053;DHT22;7101;51.600;7.310;2023-04-03T08:13:18;7.30;99.90
14053;DHT22;7101;51.600;7.310;2023-04-03T08:15:45;7.10;99.90
14053;DHT22;7101;51.600;7.310;2023-04-03T08:18:12;7.30;99.90
14053;DHT22;7101;51.600;7.310;2023-04-03T08:20:39;7.40;99.90
14053;DHT22;7101;51.600;7.310;2023-04-03T08:23:06;7.50;99.90
14053;DHT22;7101;51.600;7.310;2023-04-03T08:25:34;7.60;99.90
14053;DHT22;7101;51.600;7.310;2023-04-03T08:28:05;7.20;99.90
14053;DHT22;7101;51.600;7.310;2023-04-03T08:30:33;7.10;99.90
14053;DHT22;7101;51.600;7.310;2023-04-03T08:33:04;7.20;99.90
14053;DHT22;7101;51.600;7.310;2023-04-03T08:35:32;7.00;99.90
14053;DHT22;7101;51.600;7.310;2023-04-03T08:37:59;6.40;99.90
14053;DHT22;7101;51.600;7.310;2023-04-03T08:40:27;6.50;99.90
14053;DHT22;7101;51.600;7.310;2023-04-03T08:43:04;6.20;99.90
14053;DHT22;7101;51.600;7.310;2023-04-03T08:45:45;6.00;99.90
14053;DHT22;7101;51.600;7.310;2023-04-03T08:48:19;5.80;99.90
14053;DHT22;7101;51.600;7.310;2023-04-03T08:50:51;5.90;99.90
14053;DHT22;7101;51.600;7.310;2023-04-03T08:53:22;5.80;99.90
14053;DHT22;7101;51.600;7.310;2023-04-03T08:55:51;6.30;99.90
14053;DHT22;7101;51.600;7.310;2023-04-03T08:58:21;6.10;99.90
14053;DHT22;7101;51.600;7.310;2023-04-03T09:00:55;6.20;99.90
14053;DHT22;7101;51.600;7.310;2023-04-03T09:03:29;6.00;99.90
14053;DHT22;7101;51.600;7.310;2023-04-03T09:06:01;5.90;99.90
14053;DHT22;7101;51.600;7.310;2023-04-03T09:08:33;5.70;99.90
14053;DHT22;7101;51.600;7.310;2023-04-03T09:11:11;5.70;99.90
14053;DHT22;7101;51.600;7.310;2023-04-03T09:13:46;5.80;99.90
14053;DHT22;7101;51.600;7.310;2023-04-03T09:16:28;5.90;99.90
14053;DHT22;7101;51.600;7.310;2023-04-03T09:19:05;6.30;99.90
14053;DHT22;7101;51.600;7.310;2023-04-03T09:21:37;6.20;99.90
14053;DHT22;7101;51.600;7.310;2023-04-03T09:24:09;6.20;99.90
14053;DHT22;7101;51.600;7.310;2023-04-03T09:26:42;6.50;99.60
14053;DHT22;7101;51.600;7.310;2023-04-03T09:29:15;6.30;97.00
14053;DHT22;7101;51.600;7.310;2023-04-03T09:31:47;6.30;97.00
14053;DHT22;7101;51.600;7.310;2023-04-03T09:34:20;6.70;98.70
14053;DHT22;7101;51.600;7.310;2023-04-03T09:36:50;6.70;98.20
14053;DHT22;7101;51.600;7.310;2023-04-03T09:39:20;6.70;98.30
14053;DHT22;7101;51.600;7.310;2023-04-03T09:42:01;7.00;99.90
14053;DHT22;7101;51.600;7.310;2023-04-03T09:44:30;6.80;95.20
14053;DHT22;7101;51.600;7.310;2023-04-03T09:46:59;6.60;93.70
14053;DHT22;7101;51.600;7.310;2023-04-03T09:49:26;6.70;94.20
14053;DHT22;7101;51.600;7.310;2023-04-03T09:51:53;6.80;92.70
14053;DHT22;7101;51.600;7.310;2023-04-03T09:54:39;6.60;93.10
14053;DHT22;7101;51.600;7.310;2023-04-03T09:57:09;6.40;94.50
14053;DHT22;7101;51.600;7.310;2023-04-03T09:59:46;6.60;95.30
14053;DHT22;7101;51.600;7.310;2023-04-03T10:02:37;6.80;96.70
14053;DHT22;7101;51.600;7.310;2023-04-03T10:05:28;6.80;96.50
14053;DHT22;7101;51.600;7.310;2023-04-03T10:08:17;6.70;94.30
14053;DHT22;7101;51.600;7.310;2023-04-03T10:11:09;6.30;94.60
14053;DHT22;7101;51.600;7.310;2023-04-03T10:13:49;6.40;95.30
14053;DHT22;7101;51.600;7.310;2023-04-03T10:16:21;6.60;98.30
14053;DHT22;7101;51.600;7.310;2023-04-03T10:19:01;6.90;95.10
14053;DHT22;7101;51.600;7.310;2023-04-03T10:21:40;6.80;95.10
14053;DHT22;7101;51.600;7.310;2023-04-03T10:24:15;6.90;96.10
14053;DHT22;7101;51.600;7.310;2023-04-03T10:26:50;6.80;96.60
14053;DHT22;7101;51.600;7.310;2023-04-03T10:29:32;6.90;97.80
14053;DHT22;7101;51.600;7.310;2023-04-03T10:32:22;6.80;93.10
14053;DHT22;7101;51.600;7.310;2023-04-03T10:35:02;6.80;94.80
14053;DHT22;7101;51.600;7.310;2023-04-03T10:37:56;6.90;94.30
14053;DHT22;7101;51.600;7.310;2023-04-03T10:40:29;6.90;93.90
14053;DHT22;7101;51.600;7.310;2023-04-03T10:43:04;6.90;95.10
14053;DHT22;7101;51.600;7.310;2023-04-03T10:45:49;6.80;93.70
14053;DHT22;7101;51.600;7.310;2023-04-03T10:48:30;7.00;93.10
14053;DHT22;7101;51.600;7.310;2023-04-03T10:51:09;7.00;93.80
14053;DHT22;7101;51.600;7.310;2023-04-03T10:53:44;6.80;93.10
14053;DHT22;7101;51.600;7.310;2023-04-03T10:56:17;6.70;90.50
14053;DHT22;7101;51.600;7.310;2023-04-03T10:58:49;6.80;91.40
14053;DHT22;7101;51.600;7.310;2023-04-03T11:01:19;6.70;92.70
14053;DHT22;7101;51.600;7.310;2023-04-03T11:03:49;6.80;92.40
14053;DHT22;7101;51.600;7.310;2023-04-03T11:06:20;6.80;93.00
14053;DHT22;7101;51.600;7.310;2023-04-03T11:08:52;7.00;91.30
14053;DHT22;7101;51.600;7.310;2023-04-03T11:11:25;7.10;91.90
14053;DHT22;7101;51.600;7.310;2023-04-03T11:13:56;7.00;90.70
14053;DHT22;7101;51.600;7.310;2023-04-03T11:16:27;6.90;91.60
14053;DHT22;7101;51.600;7.310;2023-04-03T11:19:01;6.70;92.40
14053;DHT22;7101;51.600;7.310;2023-04-03T11:21:34;7.20;93.30
14053;DHT22;7101;51.600;7.310;2023-04-03T11:24:14;7.40;91.80
14053;DHT22;7101;51.600;7.310;2023-04-03T11:26:43;7.50;91.90
14053;DHT22;7101;51.600;7.310;2023-04-03T11:29:14;7.50;91.00
14053;DHT22;7101;51.600;7.310;2023-04-03T11:32:00;7.40;90.30
14053;DHT22;7101;51.600;7.310;2023-04-03T11:34:34;7.40;89.60
14053;DHT22;7101;51.600;7.310;2023-04-03T11:37:13;7.60;89.80
14053;DHT22;7101;51.600;7.310;2023-04-03T11:39:52;7.40;87.20
14053;DHT22;7101;51.600;7.310;2023-04-03T11:42:33;7.60;87.50
14053;DHT22;7101;51.600;7.310;2023-04-03T11:45:29;7.60;90.80
14053;DHT22;7101;51.600;7.310;2023-04-03T11:48:00;7.60;89.00
14053;DHT22;7101;51.600;7.310;2023-04-03T11:50:37;7.60;91.30
14053;DHT22;7101;51.600;7.310;2023-04-03T11:53:28;7.50;86.70
14053;DHT22;7101;51.600;7.310;2023-04-03T11:55:58;7.40;87.00
14053;DHT22;7101;51.600;7.310;2023-04-03T11:58:28;7.40;86.50
14053;DHT22;7101;51.600;7.310;2023-04-03T12:01:07;7.30;89.50
14053;DHT22;7101;51.600;7.310;2023-04-03T12:06:59;7.60;89.30
14053;DHT22;7101;51.600;7.310;2023-04-03T12:09:35;7.80;92.90
14053;DHT22;7101;51.600;7.310;2023-04-03T12:12:40;7.70;90.00
14053;DHT22;7101;51.600;7.310;2023-04-03T12:18:55;7.80;88.70
14053;DHT22;7101;51.600;7.310;2023-04-03T12:24:33;8.10;88.90
14053;DHT22;7101;51.600;7.310;2023-04-03T12:27:21;7.80;86.50
14053;DHT22;7101;51.600;7.310;2023-04-03T12:30:03;7.50;88.80
14053;DHT22;7101;51.600;7.310;2023-04-03T12:33:01;7.70;88.30
14053;DHT22;7101;51.600;7.310;2023-04-03T12:35:36;7.70;91.00
14053;DHT22;7101;51.600;7.310;2023-04-03T12:38:41;7.50;86.00
14053;DHT22;7101;51.600;7.310;2023-04-03T12:41:30;7.70;86.80
14053;DHT22;7101;51.600;7.310;2023-04-03T12:44:19;7.70;90.70
14053;DHT22;7101;51.600;7.310;2023-04-03T12:47:18;7.80;90.40
14053;DHT22;7101;51.600;7.310;2023-04-03T12:49:49;8.00;88.50
14053;DHT22;7101;51.600;7.310;2023-04-03T12:52:20;8.20;87.90
14053;DHT22;7101;51.600;7.310;2023-04-03T12:54:49;7.90;85.30
14053;DHT22;7101;51.600;7.310;2023-04-03T12:57:19;7.90;86.90
14053;DHT22;7101;51.600;7.310;2023-04-03T12:59:48;7.80;88.00
14053;DHT22;7101;51.600;7.310;2023-04-03T13:02:26;8.00;89.30
14053;DHT22;7101;51.600;7.310;2023-04-03T13:04:56;8.00;86.40
14053;DHT22;7101;51.600;7.310;2023-04-03T13:07:27;8.10;89.90
14053;DHT22;7101;51.600;7.310;2023-04-03T13:10:10;8.30;88.90
14053;DHT22;7101;51.600;7.310;2023-04-03T13:12:46;8.30;90.30
14053;DHT22;7101;51.600;7.310;2023-04-03T13:15:15;8.50;88.30
14053;DHT22;7101;51.600;7.310;2023-04-03T13:17:47;8.40;91.20
14053;DHT22;7101;51.600;7.310;2023-04-03T13:20:21;8.30;85.80
14053;DHT22;7101;51.600;7.310;2023-04-03T13:22:53;8.20;88.00
14053;DHT22;7101;51.600;7.310;2023-04-03T13:25:33;8.10;88.10
14053;DHT22;7101;51.600;7.310;2023-04-03T13:28:04;8.00;87.20
14053;DHT22;7101;51.600;7.310;2023-04-03T13:30:54;8.10;87.90
14053;DHT22;7101;51.600;7.310;2023-04-03T13:33:25;8.00;87.40
14053;DHT22;7101;51.600;7.310;2023-04-03T13:35:57;8.00;87.10
14053;DHT22;7101;51.600;7.310;2023-04-03T13:38:27;8.20;88.70
14053;DHT22;7101;51.600;7.310;2023-04-03T13:41:01;8.30;89.00
14053;DHT22;7101;51.600;7.310;2023-04-03T13:43:31;8.40;90.20
14053;DHT22;7101;51.600;7.310;2023-04-03T13:46:04;8.60;91.90
14053;DHT22;7101;51.600;7.310;2023-04-03T13:48:40;8.50;90.30
14053;DHT22;7101;51.600;7.310;2023-04-03T13:51:19;8.40;89.00
14053;DHT22;7101;51.600;7.310;2023-04-03T13:53:56;8.10;88.20
14053;DHT22;7101;51.600;7.310;2023-04-03T13:56:29;8.20;87.90
14053;DHT22;7101;51.600;7.310;2023-04-03T13:59:01;8.20;87.80
14053;DHT22;7101;51.600;7.310;2023-04-03T14:01:42;8.30;89.40
14053;DHT22;7101;51.600;7.310;2023-04-03T14:04:17;8.50;88.10
14053;DHT22;7101;51.600;7.310;2023-04-03T14:06:45;8.60;88.00
14053;DHT22;7101;51.600;7.310;2023-04-03T14:09:14;8.40;85.30
14053;DHT22;7101;51.600;7.310;2023-04-03T14:11:42;8.40;87.80
14053;DHT22;7101;51.600;7.310;2023-04-03T14:14:13;8.30;85.60
14053;DHT22;7101;51.600;7.310;2023-04-03T14:16:44;8.30;86.50
14053;DHT22;7101;51.600;7.310;2023-04-03T14:19:19;8.50;90.00
14053;DHT22;7101;51.600;7.310;2023-04-03T14:21:46;8.70;88.30
14053;DHT22;7101;51.600;7.310;2023-04-03T14:24:13;8.40;87.90
14053;DHT22;7101;51.600;7.310;2023-04-03T14:26:40;8.30;87.80
14053;DHT22;7101;51.600;7.310;2023-04-03T14:29:10;8.30;87.90
14053;DHT22;7101;51.600;7.310;2023-04-03T14:31:37;8.20;86.70
14053;DHT22;7101;51.600;7.310;2023-04-03T14:34:05;8.10;88.90
14053;DHT22;7101;51.600;7.310;2023-04-03T14:36:34;8.20;86.50
14053;DHT22;7101;51.600;7.310;2023-04-03T14:39:01;8.00;87.00
14053;DHT22;7101;51.600;7.310;2023-04-03T14:41:29;7.90;88.00
14053;DHT22;7101;51.600;7.310;2023-04-03T14:43:56;8.30;91.60
14053;DHT22;7101;51.600;7.310;2023-04-03T14:46:26;8.40;89.40
14053;DHT22;7101;51.600;7.310;2023-04-03T14:48:55;8.30;88.40
14053;DHT22;7101;51.600;7.310;2023-04-03T14:51:22;8.30;88.50
14053;DHT22;7101;51.600;7.310;2023-04-03T14:53:50;8.40;86.60
14053;DHT22;7101;51.600;7.310;2023-04-03T14:56:21;8.30;84.50
14053;DHT22;7101;51.600;7.310;2023-04-03T14:58:49;8.20;85.90
14053;DHT22;7101;51.600;7.310;2023-04-03T15:01:18;8.00;86.30
14053;DHT22;7101;51.600;7.310;2023-04-03T15:03:45;8.10;84.90
14053;DHT22;7101;51.600;7.310;2023-04-03T15:06:13;8.00;85.40
14053;DHT22;7101;51.600;7.310;2023-04-03T15:08:41;8.10;86.50
14053;DHT22;7101;51.600;7.310;2023-04-03T15:11:10;8.20;86.30
14053;DHT22;7101;51.600;7.310;2023-04-03T15:13:37;8.40;87.80
14053;DHT22;7101;51.600;7.310;2023-04-03T15:16:05;8.50;90.00
14053;DHT22;7101;51.600;7.310;2023-04-03T15:18:36;8.30;90.20
14053;DHT22;7101;51.600;7.310;2023-04-03T15:21:04;8.40;90.30
14053;DHT22;7101;51.600;7.310;2023-04-03T15:23:31;8.30;88.30
14053;DHT22;7101;51.600;7.310;2023-04-03T15:25:58;8.10;85.40
14053;DHT22;7101;51.600;7.310;2023-04-03T15:28:28;7.90;85.40
14053;DHT22;7101;51.600;7.310;2023-04-03T15:30:58;7.90;88.20
14053;DHT22;7101;51.600;7.310;2023-04-03T15:33:25;8.00;88.00
14053;DHT22;7101;51.600;7.310;2023-04-03T15:35:52;8.10;87.50
14053;DHT22;7101;51.600;7.310;2023-04-03T15:38:19;8.00;86.50
14053;DHT22;7101;51.600;7.310;2023-04-03T15:40:46;8.00;87.80
14053;DHT22;7101;51.600;7.310;2023-04-03T15:43:13;8.10;87.80
14053;DHT22;7101;51.600;7.310;2023-04-03T15:45:42;8.20;87.10
14053;DHT22;7101;51.600;7.310;2023-04-03T15:48:12;8.10;85.80
14053;DHT22;7101;51.600;7.310;2023-04-03T15:50:39;8.10;89.10
14053;DHT22;7101;51.600;7.310;2023-04-03T15:53:06;8.30;89.60
14053;DHT22;7101;51.600;7.310;2023-04-03T15:55:35;8.30;85.50
14053;DHT22;7101;51.600;7.310;2023-04-03T15:58:02;8.20;87.40
14053;DHT22;7101;51.600;7.310;2023-04-03T16:00:30;8.00;86.60
14053;DHT22;7101;51.600;7.310;2023-04-03T16:03:04;7.90;87.30
14053;DHT22;7101;51.600;7.310;2023-04-03T16:05:42;7.80;86.90
14053;DHT22;7101;51.600;7.310;2023-04-03T16:08:09;7.90;88.20
14053;DHT22;7101;51.600;7.310;2023-04-03T16:10:39;7.80;87.70
14053;DHT22;7101;51.600;7.310;2023-04-03T16:13:13;7.90;88.00
14053;DHT22;7101;51.600;7.310;2023-04-03T16:15:46;7.80;87.60
14053;DHT22;7101;51.600;7.310;2023-04-03T16:18:16;7.70;89.50
14053;DHT22;7101;51.600;7.310;2023-04-03T16:20:44;7.50;87.70
14053;DHT22;7101;51.600;7.310;2023-04-03T16:23:17;7.50;88.20
14053;DHT22;7101;51.600;7.310;2023-04-03T16:25:45;7.50;89.00
14053;DHT22;7101;51.600;7.310;2023-04-03T16:28:13;7.50;88.90
14053;DHT22;7101;51.600;7.310;2023-04-03T16:30:41;7.40;88.00
14053;DHT22;7101;51.600;7.310;2023-04-03T16:33:09;7.40;87.50
14053;DHT22;7101;51.600;7.310;2023-04-03T16:35:38;7.40;88.00
14053;DHT22;7101;51.600;7.310;2023-04-03T16:38:14;7.40;85.80
14053;DHT22;7101;51.600;7.310;2023-04-03T16:40:41;7.40;86.20